Latest Weather Observations for Mount Bundey South (Defence)

IDD60801

Issued at 11:31 am CST Monday 20 November 2017 (issued every 30 minutes, with the page automatically refreshed every 10 minutes)

About weather observations | Map of weather stations | Latest weather observations for NT | Other Formats
Station Details ID: 014984 Name: MOUNT BUNDEY SOUTH (DEFENCE) Lat: -13.09 Lon: 131.85 Height: 55.0 m
Data from the previous 72 hours. | See also: Recent months for locations in Northern Territory
Date/Time
CST
Temp
°C
App
Temp
°C
Dew
Point
°C
Rel
Hum
%
Delta-T
°C
Wind Press
QNH
hPa
Press
MSL
hPa
Rain since
9am
mm
Dir  Spd
km/h
Gust
km/h
Spd
kts
Gust
kts
20/11:30am 32.2 36.7 23.7 61 5.9 NNW 6 11 3 6 1011.0 1010.6 0.2
20/11:00am 31.6 36.8 24.2 65 5.2 NNW 4 7 2 4 1011.6 1011.2 0.2
20/10:30am 30.4 35.3 23.6 67 4.7 NNW 4 7 2 4 1011.8 1011.4 0.2
20/10:00am 29.2 33.9 22.7 68 4.4 NNW 2 4 1 2 1011.9 1011.5 0.0
20/09:30am 28.4 33.5 24.0 77 3.0 NNW 4 6 2 3 1012.0 1011.6 0.0
20/09:00am 27.6 31.8 23.2 77 3.0 NNW 6 9 3 5 1012.1 1011.7 6.2
20/08:30am 27.5 31.9 23.5 79 2.7 NNW 6 9 3 5 1012.0 1011.6 6.2
20/08:00am 26.7 31.3 23.8 84 2.0 NNW 6 9 3 5 1011.9 1011.5 6.2
20/07:30am 25.5 30.4 23.7 90 1.2 NNW 4 7 2 4 1011.6 1011.2 6.2
20/07:00am 24.7 29.9 23.5 93 0.8 NNW 2 6 1 3 1011.4 1011.0 6.2
20/06:30am 24.4 29.2 23.5 95 0.6 NNW 4 6 2 3 1011.1 1010.7 6.2
20/06:00am 24.3 29.2 23.6 96 0.5 NNW 4 6 2 3 1011.2 1010.8 6.2
20/05:30am 24.0 28.4 23.5 97 0.3 NNW 6 9 3 5 1010.9 1010.5 6.2
20/05:00am 23.9 28.1 23.2 96 0.5 NNW 6 11 3 6 1010.6 1010.2 6.2
20/04:30am 24.0 28.7 23.3 96 0.5 NNW 4 7 2 4 1010.3 1009.9 6.2
20/04:00am 24.0 28.7 23.3 96 0.5 NNW 4 6 2 3 1010.2 1009.8 6.2
20/03:30am 24.0 28.6 23.1 95 0.6 NNW 4 6 2 3 1010.2 1009.8 6.2
20/03:00am 24.0 28.2 23.1 95 0.6 NNW 6 6 3 3 1010.0 1009.6 6.2
20/02:30am 24.1 29.0 23.6 97 0.3 NNW 4 7 2 4 1010.2 1009.8 6.2
20/02:00am 24.2 29.5 23.7 97 0.3 NNW 2 4 1 2 1010.3 1009.9 6.2
20/01:30am 24.3 29.7 23.8 97 0.3 NNW 2 4 1 2 1011.0 1010.6 6.2
20/01:00am 24.3 29.3 23.8 97 0.3 NNW 4 7 2 4 1011.5 1011.1 6.2
20/12:30am 24.2 29.8 23.5 96 0.5 CALM 0 2 0 1 1011.6 1011.2 6.2
20/12:00am 24.4 29.6 23.5 95 0.6 NNW 2 6 1 3 1011.8 1011.4 6.2
 
Date/Time
CST
Temp
°C
App
Temp
°C
Dew
Point
°C
Rel
Hum
%
Delta-T
°C
Wind Press
QNH
hPa
Press
MSL
hPa
Rain since
9am
mm
Dir  Spd
km/h
Gust
km/h
Spd
kts
Gust
kts
19/11:30pm 24.5 29.2 23.3 93 0.8 NNW 4 7 2 4 1011.6 1011.2 6.2
19/11:00pm 24.2 28.3 23.2 94 0.7 N 7 13 4 7 1010.8 1010.4 6.2
19/10:30pm 23.9 28.1 23.4 97 0.3 N 7 13 4 7 1011.4 1011.0 6.0
19/10:00pm 23.8 28.4 23.1 96 0.5 NNE 4 9 2 5 1011.9 1011.5 5.2
19/09:30pm 23.5 27.8 22.7 95 0.5 NNW 4 6 2 3 1012.2 1011.8 3.2
19/09:00pm 23.7 28.7 22.5 93 0.8 CALM 0 2 0 1 1012.7 1012.3 1.6
19/08:30pm 23.8 27.3 22.1 90 1.1 NNW 7 13 4 7 1011.9 1011.5 1.0
19/08:00pm 24.7 29.0 22.6 88 1.4 E 4 11 2 6 1012.1 1011.7 0.8
19/07:30pm 24.9 27.0 23.1 90 1.2 SSE 17 28 9 15 1011.5 1011.1 0.2
19/07:05pm 27.3 30.3 22.7 76 3.1 N 11 39 6 21 1010.8 1010.4 0.2
19/07:00pm 28.0 32.6 23.2 75 3.3 NNW 4 9 2 5 1010.6 1010.2 0.2
19/06:30pm 28.0 32.2 23.4 76 3.2 NNW 7 17 4 9 1008.5 1008.1 0.2
19/06:00pm 28.7 31.8 22.2 68 4.4 NNW 9 17 5 9 1007.8 1007.4 0.2
19/05:30pm 30.5 33.7 22.4 62 5.5 NNW 9 17 5 9 1007.8 1007.4 0.2
19/05:00pm 31.9 36.2 23.7 62 5.7 NNW 7 13 4 7 1007.1 1006.7 0.2
19/04:30pm 30.7 34.4 23.9 67 4.7 NW 11 20 6 11 1006.8 1006.4 0.2
19/04:00pm 31.3 35.4 22.9 61 5.8 SSW 6 11 3 6 1006.9 1006.5 0.2
19/03:30pm 35.6 39.5 20.3 40 10.3 CALM 0 4 0 2 1007.4 1007.0 0.2
19/03:00pm 35.5 38.8 21.4 44 9.6 NNW 6 11 3 6 1007.6 1007.2 0.2
19/02:30pm 36.0 39.1 21.1 42 10.1 NNW 6 9 3 5 1008.0 1007.6 0.2
19/02:00pm 36.0 40.1 22.9 46 9.1 NNW 6 11 3 6 1008.5 1008.1 0.2
19/01:30pm 35.4 39.0 22.4 47 9.0 NNW 7 15 4 8 1009.0 1008.6 0.2
19/01:00pm 35.0 39.3 22.7 49 8.5 ENE 4 11 2 6 1009.6 1009.2 0.2
19/12:30pm 34.1 37.4 22.5 50 8.0 NNW 9 13 5 7 1010.1 1009.7 0.2
19/12:00pm 33.7 38.1 23.4 55 7.2 NNW 6 13 3 7 1010.5 1010.1 0.2
19/11:30am 33.5 38.3 23.5 55 7.0 NNW 4 9 2 5 1011.0 1010.6 0.2
19/11:00am 32.4 36.6 23.1 58 6.4 NNW 6 9 3 5 1011.3 1010.9 0.2
19/10:30am 32.0 36.3 23.3 60 6.0 NNW 6 9 3 5 1011.5 1011.1 0.2
19/10:00am 30.9 35.8 24.3 68 4.6 N 6 15 3 8 1011.8 1011.4 0.0
19/09:30am 30.4 35.0 23.8 68 4.6 N 6 13 3 7 1011.7 1011.3 0.0
19/09:00am 28.7 33.6 24.3 77 3.1 NNW 6 9 3 5 1011.6 1011.2 2.4
19/08:30am 28.0 33.3 24.4 81 2.5 NNW 4 7 2 4 1011.6 1011.2 2.4
19/08:00am 26.9 32.2 24.4 86 1.7 NNW 4 6 2 3 1011.4 1011.0 2.4
19/07:30am 26.1 31.4 24.3 90 1.2 NNW 4 6 2 3 1011.2 1010.8 2.4
19/07:00am 25.5 30.8 24.3 93 0.8 NNW 4 6 2 3 1010.9 1010.5 2.4
19/06:30am 25.0 31.0 24.3 96 0.5 CALM 0 0 0 0 1010.4 1010.0 2.4
19/06:00am 24.8 30.7 24.1 96 0.5 CALM 0 0 0 0 1010.1 1009.7 2.4
19/05:30am 24.9 30.7 24.0 95 0.6 CALM 0 0 0 0 1009.7 1009.3 2.4
19/05:00am 25.1 30.9 23.9 93 0.8 CALM 0 0 0 0 1009.6 1009.2 2.4
19/04:30am 25.1 30.9 23.9 93 0.8 CALM 0 0 0 0 1009.5 1009.1 2.4
19/04:00am 25.4 31.0 23.6 90 1.2 CALM 0 0 0 0 1009.3 1008.9 2.4
19/03:30am 25.6 31.3 23.8 90 1.2 CALM 0 0 0 0 1009.6 1009.2 2.4
19/03:00am 25.6 30.8 23.5 88 1.4 NNW 2 4 1 2 1009.9 1009.5 2.4
19/02:30am 25.5 30.9 23.9 91 1.1 NNW 2 4 1 2 1010.1 1009.7 2.4
19/02:00am 25.8 31.5 23.7 88 1.4 CALM 0 0 0 0 1010.0 1009.6 2.4
19/01:30am 25.9 31.0 23.4 86 1.7 NNW 2 4 1 2 1010.7 1010.3 2.4
19/01:00am 26.1 31.1 23.2 84 2.0 NNW 2 2 1 1 1011.0 1010.6 2.4
19/12:30am 26.3 30.4 23.0 82 2.2 NNW 6 7 3 4 1011.4 1011.0 2.4
19/12:00am 27.2 31.7 23.7 81 2.4 NNW 6 11 3 6 1011.6 1011.2 2.4
 
Date/Time
CST
Temp
°C
App
Temp
°C
Dew
Point
°C
Rel
Hum
%
Delta-T
°C
Wind Press
QNH
hPa
Press
MSL
hPa
Rain since
9am
mm
Dir  Spd
km/h
Gust
km/h
Spd
kts
Gust
kts
18/11:30pm 27.6 32.8 23.6 79 2.8 NNW 2 4 1 2 1011.4 1011.0 2.4
18/11:00pm 28.3 32.8 23.0 73 3.6 NNW 4 9 2 5 1011.1 1010.7 2.4
18/10:30pm 28.5 32.7 23.2 73 3.6 NNW 6 11 3 6 1011.2 1010.8 2.4
18/10:00pm 27.5 33.3 23.9 81 2.5 CALM 0 0 0 0 1011.0 1010.6 2.4
18/09:30pm 27.2 33.2 24.3 84 2.0 CALM 0 0 0 0 1010.8 1010.4 2.4
18/09:00pm 27.2 32.3 23.4 80 2.6 NNW 2 4 1 2 1010.0 1009.6 2.4
18/08:30pm 27.4 32.4 23.2 78 2.9 NNW 2 6 1 3 1009.3 1008.9 2.4
18/08:00pm 27.6 32.0 22.8 75 3.3 NNW 4 7 2 4 1008.9 1008.5 2.4
18/07:30pm 28.0 32.1 22.9 74 3.5 NNW 6 9 3 5 1008.7 1008.3 2.4
18/07:00pm 28.8 32.6 22.8 70 4.1 NNW 7 11 4 6 1008.6 1008.2 2.4
18/06:30pm 28.4 32.8 23.5 75 3.4 NNW 6 11 3 6 1008.4 1008.0 2.4
18/06:00pm 26.4 31.9 24.1 87 1.6 SSW 2 4 1 2 1007.7 1007.3 2.4
18/05:30pm 24.9 26.6 22.4 86 1.7 S 17 32 9 17 1007.9 1007.5 1.8
18/05:15pm 26.3 27.0 21.5 75 3.2 SE 20 35 11 19 1007.8 1007.4 0.8
18/05:00pm 31.3 36.5 24.2 66 5.0 NNW 4 6 2 3 1007.0 1006.6 0.8
18/04:30pm 34.3 37.0 21.4 47 8.8 N 9 20 5 11 1006.9 1006.5 0.0
18/04:00pm 35.8 38.6 20.9 42 10.1 ESE 7 11 4 6 1006.5 1006.1 0.0
18/03:30pm 35.4 37.3 20.5 41 10.0 E 11 20 6 11 1006.8 1006.4 0.0
18/03:00pm 36.2 37.8 20.8 40 10.4 ESE 13 20 7 11 1007.3 1006.9 0.0
18/02:30pm 36.2 38.8 20.4 39 10.7 N 7 17 4 9 1007.7 1007.3 0.0
18/02:00pm 35.6 38.1 21.1 43 9.8 E 9 15 5 8 1008.1 1007.7 0.0
18/01:30pm 35.3 37.7 20.8 42 9.8 N 9 20 5 11 1008.7 1008.3 0.0
18/01:00pm 34.8 36.8 20.0 42 9.9 ENE 9 20 5 11 1009.3 1008.9 0.0
18/12:30pm 34.4 36.7 21.4 46 8.8 E 11 17 6 9 1009.9 1009.5 0.0
18/12:00pm 33.8 35.6 21.2 47 8.5 E 13 22 7 12 1010.4 1010.0 0.0
18/11:30am 33.3 36.4 22.1 52 7.7 NE 9 17 5 9 1011.0 1010.6 0.0
18/11:00am 32.7 35.5 21.5 51 7.6 E 9 15 5 8 1011.3 1010.9 0.0
18/10:30am 32.3 35.7 22.7 57 6.6 E 9 15 5 8 1011.7 1011.3 0.0
18/10:00am 31.7 34.7 22.7 59 6.2 E 11 19 6 10 1011.9 1011.5 0.0
18/09:30am 30.8 34.6 22.7 62 5.5 E 7 15 4 8 1011.8 1011.4 0.0
18/09:00am 29.9 34.0 22.9 66 4.8 ESE 6 11 3 6 1011.8 1011.4 0.0
18/08:30am 29.1 33.3 23.1 70 4.1 SE 6 9 3 5 1011.6 1011.2 0.0
18/08:00am 27.5 31.6 23.3 78 2.9 SE 7 9 4 5 1011.3 1010.9 0.0
18/07:30am 26.7 31.1 23.4 82 2.3 SE 6 7 3 4 1011.1 1010.7 0.0
18/07:00am 25.6 30.0 23.5 88 1.4 ESE 6 7 3 4 1010.7 1010.3 0.0
18/06:30am 24.6 29.9 23.7 95 0.6 SE 2 4 1 2 1010.5 1010.1 0.0
18/06:00am 24.3 30.0 23.8 97 0.3 CALM 0 0 0 0 1010.1 1009.7 0.0
18/05:30am 24.3 29.9 23.6 96 0.5 CALM 0 0 0 0 1009.7 1009.3 0.0
18/05:00am 24.6 30.1 23.4 93 0.8 CALM 0 0 0 0 1009.7 1009.3 0.0
18/04:30am 24.9 30.5 23.5 92 1.0 CALM 0 0 0 0 1009.6 1009.2 0.0
18/04:00am 25.1 30.1 23.2 89 1.3 E 2 6 1 3 1009.6 1009.2 0.0
18/03:30am 25.3 30.2 23.0 87 1.6 SE 2 7 1 4 1009.6 1009.2 0.0
18/03:00am 25.3 30.1 23.5 90 1.2 SSE 4 6 2 3 1009.7 1009.3 0.0
18/02:30am 25.1 30.2 23.3 90 1.2 S 2 6 1 3 1009.8 1009.4 0.0
18/02:00am 25.3 30.1 23.5 90 1.2 S 4 6 2 3 1010.1 1009.7 0.0
18/01:30am 25.2 30.8 23.6 91 1.1 CALM 0 0 0 0 1010.2 1009.8 0.0
18/01:00am 25.1 30.8 23.7 92 1.0 CALM 0 0 0 0 1010.6 1010.2 0.0
18/12:30am 25.2 30.6 23.3 89 1.3 CALM 0 0 0 0 1011.0 1010.6 0.0
18/12:00am 25.4 30.0 23.1 87 1.6 SE 4 7 2 4 1011.8 1011.4 0.0
 
Date/Time
CST
Temp
°C
App
Temp
°C
Dew
Point
°C
Rel
Hum
%
Delta-T
°C
Wind Press
QNH
hPa
Press
MSL
hPa
Rain since
9am
mm
Dir  Spd
km/h
Gust
km/h
Spd
kts
Gust
kts
17/11:30pm 25.4 29.4 22.7 85 1.8 ESE 6 11 3 6 1012.2 1011.8 0.0
17/11:00pm 25.5 28.6 22.2 82 2.2 ESE 9 15 5 8 1012.3 1011.9 0.0
17/10:30pm 25.5 28.1 22.0 81 2.3 SE 11 19 6 10 1012.2 1011.8 0.0
17/10:00pm 25.8 28.9 21.5 77 2.9 SE 7 9 4 5 1011.8 1011.4 0.0
17/09:30pm 26.0 29.5 21.9 78 2.7 SSE 6 9 3 5 1011.5 1011.1 0.0
17/09:00pm 26.7 31.3 21.7 74 3.3 CALM 0 0 0 0 1010.8 1010.4 0.0
17/08:30pm 26.9 30.9 21.4 72 3.7 SSE 2 4 1 2 1010.6 1010.2 0.0
17/08:00pm 28.0 32.6 22.5 72 3.7 S 2 9 1 5 1010.3 1009.9 0.0
17/07:30pm 28.9 31.6 22.2 67 4.5 SE 11 20 6 11 1010.3 1009.9 0.0
17/07:00pm 29.3 32.6 21.8 64 5.1 ENE 7 11 4 6 1009.8 1009.4 0.0
17/06:30pm 29.4 33.3 22.9 68 4.5 N 7 17 4 9 1008.7 1008.3 0.0
17/06:00pm 29.9 33.0 22.9 66 4.8 N 11 19 6 10 1008.1 1007.7 0.0
17/05:30pm 30.8 34.6 23.5 65 5.1 N 9 20 5 11 1008.0 1007.6 0.0
17/05:00pm 32.0 34.5 22.4 57 6.6 NNW 13 32 7 17 1007.5 1007.1 0.0
17/04:30pm 34.6 38.0 21.6 46 8.9 NNW 6 11 3 6 1007.1 1006.7 0.0
17/04:00pm 34.5 37.5 20.8 44 9.2 NNW 6 9 3 5 1007.0 1006.6 0.0
17/03:30pm 34.6 38.0 20.9 44 9.3 NNW 4 11 2 6 1007.4 1007.0 0.0
17/03:00pm 34.4 38.6 22.5 50 8.2 NNW 4 9 2 5 1007.9 1007.5 0.0
17/02:30pm 33.5 37.1 22.0 51 7.9 NNW 6 11 3 6 1008.4 1008.0 0.0
17/02:00pm 33.1 36.8 22.2 52 7.5 NNW 6 13 3 7 1008.8 1008.4 0.0
17/01:30pm 33.0 36.8 22.7 54 7.1 NNW 7 13 4 7 1009.5 1009.1 0.0
17/01:00pm 32.5 36.2 22.6 56 6.8 NNW 7 13 4 7 1009.8 1009.4 0.0
17/12:30pm 32.0 36.5 23.0 59 6.2 SE 4 7 2 4 1010.1 1009.7 0.0
17/12:00pm 30.9 34.3 21.7 58 6.2 ESE 6 9 3 5 1010.7 1010.3 0.0

Other Formats:

Comma delimited format used in spreadsheet applications
http://www.bom.gov.au/fwo/IDD60801/IDD60801.94112.axf

JavaScript Object Notation format (JSON) in row-major order
http://www.bom.gov.au/fwo/IDD60801/IDD60801.94112.json